createdAt,value
2017-01-26T00:00:11.441Z,52.04
2017-01-26T00:01:12.996Z,51.88
2017-01-26T00:02:12.714Z,52.68
2017-01-26T00:03:13.297Z,52.86
2017-01-26T00:04:12.435Z,52.96
2017-01-26T00:05:13.552Z,52.99
2017-01-26T00:06:13.471Z,53.03
2017-01-26T00:07:13.386Z,53.08
2017-01-26T00:08:10.552Z,53.10
2017-01-26T00:09:12.931Z,53.11
2017-01-26T00:10:12.899Z,53.14
2017-01-26T00:11:13.079Z,53.15
2017-01-26T00:12:12.950Z,53.17
2017-01-26T00:13:12.099Z,53.15
2017-01-26T00:14:12.905Z,53.18
2017-01-26T00:15:12.971Z,53.18
2017-01-26T00:16:12.726Z,53.22
2017-01-26T00:17:12.841Z,53.22
2017-01-26T00:18:13.308Z,53.16
2017-01-26T00:19:12.945Z,52.40
2017-01-26T00:20:12.299Z,53.07
2017-01-26T00:21:12.979Z,53.17
2017-01-26T00:22:14.945Z,53.22
2017-01-26T00:23:12.485Z,53.25
2017-01-26T00:24:14.193Z,53.29
2017-01-26T00:25:12.226Z,53.31
2017-01-26T00:26:12.308Z,53.32
2017-01-26T00:27:12.349Z,53.33
2017-01-26T00:28:12.343Z,53.35
2017-01-26T00:29:12.285Z,53.35
2017-01-26T00:30:12.262Z,53.38
2017-01-26T00:31:12.921Z,53.37
2017-01-26T00:32:13.026Z,53.37
2017-01-26T00:33:12.698Z,53.40
2017-01-26T00:34:12.749Z,53.40
2017-01-26T00:35:12.840Z,53.42
2017-01-26T00:36:13.800Z,53.44
2017-01-26T00:37:14.637Z,53.45
2017-01-26T00:38:12.811Z,53.44
2017-01-26T00:39:11.463Z,53.47
2017-01-26T00:40:13.178Z,53.48
2017-01-26T00:41:12.210Z,53.46
2017-01-26T00:42:12.501Z,53.48
2017-01-26T00:43:12.549Z,53.48
2017-01-26T00:44:12.710Z,53.49
2017-01-26T00:45:14.182Z,53.49
2017-01-26T00:46:18.170Z,53.51
2017-01-26T00:47:13.699Z,53.49
2017-01-26T00:48:13.958Z,53.50
2017-01-26T00:49:12.515Z,53.51
2017-01-26T00:50:13.219Z,53.53
2017-01-26T00:51:13.720Z,53.52
2017-01-26T00:52:12.767Z,53.54
2017-01-26T00:53:14.210Z,53.51
2017-01-26T00:54:12.334Z,53.52
2017-01-26T00:55:12.511Z,53.53
2017-01-26T00:56:12.410Z,53.52
2017-01-26T00:57:12.534Z,53.53
2017-01-26T00:58:12.706Z,53.52
2017-01-26T00:59:12.919Z,53.52
2017-01-26T01:00:16.794Z,53.53
2017-01-26T01:01:14.713Z,53.53
2017-01-26T01:02:13.923Z,53.52
2017-01-26T01:03:13.708Z,53.52
2017-01-26T01:04:15.601Z,53.51
2017-01-26T01:05:12.749Z,53.49
2017-01-26T01:06:14.488Z,53.51
2017-01-26T01:07:14.601Z,53.50
2017-01-26T01:08:13.350Z,53.49
2017-01-26T01:09:12.940Z,53.50
2017-01-26T01:10:12.760Z,53.51
2017-01-26T01:11:16.084Z,53.50
2017-01-26T01:12:16.068Z,53.50
2017-01-26T01:13:13.652Z,53.36
2017-01-26T01:14:15.030Z,52.64
2017-01-26T01:15:12.451Z,52.53
2017-01-26T01:16:14.788Z,52.35
2017-01-26T01:17:11.208Z,52.25
2017-01-26T01:18:13.447Z,52.27
2017-01-26T01:19:12.455Z,53.06
2017-01-26T01:20:15.163Z,53.27
2017-01-26T01:21:16.365Z,53.35
2017-01-26T01:22:13.010Z,53.40
2017-01-26T01:23:12.551Z,53.42
2017-01-26T01:24:13.828Z,53.44
2017-01-26T01:25:13.511Z,53.45
2017-01-26T01:26:12.669Z,53.46
2017-01-26T01:27:13.414Z,53.47
2017-01-26T01:28:12.503Z,53.49
2017-01-26T01:29:12.698Z,53.49
2017-01-26T01:30:13.641Z,53.48
2017-01-26T01:31:12.817Z,53.49
2017-01-26T01:32:11.644Z,53.50
2017-01-26T01:33:13.430Z,52.67
2017-01-26T01:34:13.409Z,52.49
2017-01-26T01:35:12.855Z,52.37
2017-01-26T01:36:14.117Z,52.35
2017-01-26T01:37:12.363Z,52.30
2017-01-26T01:38:13.952Z,52.30
2017-01-26T01:39:12.625Z,52.28
2017-01-26T01:40:14.331Z,52.28
2017-01-26T01:41:13.762Z,52.27
2017-01-26T01:42:12.423Z,52.21
2017-01-26T01:43:13.879Z,52.28
2017-01-26T01:44:14.004Z,52.27
2017-01-26T01:45:13.551Z,52.27
2017-01-26T01:46:13.624Z,52.37
2017-01-26T01:47:12.785Z,52.32
2017-01-26T01:48:13.441Z,52.30
2017-01-26T01:49:12.351Z,52.31
2017-01-26T01:50:13.011Z,52.32
2017-01-26T01:51:13.215Z,52.32
2017-01-26T01:52:13.749Z,52.32
2017-01-26T01:53:13.746Z,52.34
2017-01-26T01:54:13.926Z,52.34
2017-01-26T01:55:11.962Z,52.55
2017-01-26T01:56:09.327Z,53.22
2017-01-26T01:57:13.566Z,53.40
2017-01-26T01:58:11.150Z,53.52
2017-01-26T01:59:13.744Z,53.60
2017-01-26T02:00:13.364Z,53.62
2017-01-26T02:01:13.602Z,53.64
2017-01-26T02:02:13.219Z,53.69
2017-01-26T02:03:14.642Z,53.72
2017-01-26T02:04:11.652Z,53.71
2017-01-26T02:05:13.023Z,53.74
2017-01-26T02:06:13.270Z,53.75
2017-01-26T02:07:13.220Z,53.77
2017-01-26T02:08:14.035Z,53.77
2017-01-26T02:09:13.146Z,53.80
2017-01-26T02:10:12.173Z,53.80
2017-01-26T02:11:14.747Z,53.83
2017-01-26T02:12:13.586Z,53.86
2017-01-26T02:13:13.750Z,53.87
2017-01-26T02:14:14.321Z,53.84
2017-01-26T02:15:13.624Z,53.71
2017-01-26T02:16:12.773Z,53.86
2017-01-26T02:17:13.711Z,53.88
2017-01-26T02:18:13.368Z,53.89
2017-01-26T02:19:13.141Z,53.89
2017-01-26T02:20:13.430Z,53.90
2017-01-26T02:21:13.859Z,53.90
2017-01-26T02:22:13.054Z,53.89
2017-01-26T02:23:13.851Z,53.90
2017-01-26T02:24:13.838Z,53.92
2017-01-26T02:25:13.581Z,53.94
2017-01-26T02:26:11.686Z,53.82
2017-01-26T02:27:13.237Z,53.25
2017-01-26T02:28:13.760Z,53.73
2017-01-26T02:29:11.972Z,53.77
2017-01-26T02:30:14.149Z,53.01
2017-01-26T02:31:12.925Z,52.84
2017-01-26T02:32:13.788Z,52.77
2017-01-26T02:33:14.558Z,52.85
2017-01-26T02:34:14.058Z,53.56
2017-01-26T02:35:12.247Z,53.75
2017-01-26T02:36:12.971Z,53.84
2017-01-26T02:37:12.615Z,53.87
2017-01-26T02:38:13.308Z,53.90
2017-01-26T02:39:14.939Z,53.93
2017-01-26T02:40:12.900Z,53.92
2017-01-26T02:41:13.749Z,53.92
2017-01-26T02:42:12.877Z,53.95
2017-01-26T02:43:11.710Z,53.96
2017-01-26T02:44:12.928Z,53.96
2017-01-26T02:45:11.117Z,54.00
2017-01-26T02:46:12.378Z,53.13
2017-01-26T02:47:12.369Z,52.92
2017-01-26T02:48:12.390Z,52.83
2017-01-26T02:49:10.571Z,52.78
2017-01-26T02:50:12.710Z,52.74
2017-01-26T02:51:12.984Z,53.56
2017-01-26T02:52:12.106Z,53.74
2017-01-26T02:53:10.471Z,53.86
2017-01-26T02:54:13.278Z,53.89
2017-01-26T02:55:12.350Z,53.91
2017-01-26T02:56:12.407Z,53.92
2017-01-26T02:57:12.570Z,53.95
2017-01-26T02:58:13.785Z,53.97
2017-01-26T02:59:12.710Z,53.98
2017-01-26T03:00:14.423Z,54.00
2017-01-26T03:01:12.432Z,54.01
2017-01-26T03:02:13.153Z,54.00
2017-01-26T03:03:12.607Z,54.05
2017-01-26T03:04:13.798Z,54.03
2017-01-26T03:05:11.683Z,54.04
2017-01-26T03:06:13.814Z,54.06
2017-01-26T03:07:13.719Z,54.06
2017-01-26T03:08:14.231Z,54.06
2017-01-26T03:09:14.209Z,54.05
2017-01-26T03:10:12.191Z,54.05
2017-01-26T03:11:13.152Z,54.07
2017-01-26T03:12:12.779Z,54.05
2017-01-26T03:13:10.183Z,54.06
2017-01-26T03:14:12.846Z,54.10
2017-01-26T03:15:12.948Z,54.10
2017-01-26T03:16:13.117Z,54.09
2017-01-26T03:17:12.969Z,54.10
2017-01-26T03:18:11.967Z,54.09
2017-01-26T03:19:13.607Z,54.13
2017-01-26T03:20:12.449Z,54.11
2017-01-26T03:21:12.962Z,54.10
2017-01-26T03:22:13.522Z,54.09
2017-01-26T03:23:12.704Z,54.13
2017-01-26T03:24:12.789Z,54.14
2017-01-26T03:25:13.508Z,54.15
2017-01-26T03:26:13.474Z,54.16
2017-01-26T03:27:13.137Z,54.17
2017-01-26T03:28:12.257Z,54.15
2017-01-26T03:29:13.315Z,54.14
2017-01-26T03:30:14.067Z,54.19
2017-01-26T03:31:12.945Z,54.21
2017-01-26T03:32:10.927Z,54.18
2017-01-26T03:33:14.718Z,53.34
2017-01-26T03:34:12.890Z,53.37
2017-01-26T03:35:13.798Z,53.91
2017-01-26T03:36:13.341Z,54.09
2017-01-26T03:37:12.782Z,54.11
2017-01-26T03:38:14.356Z,54.18
2017-01-26T03:39:13.030Z,54.20
2017-01-26T03:40:12.211Z,54.19
2017-01-26T03:41:12.225Z,53.56
2017-01-26T03:42:12.199Z,54.05
2017-01-26T03:43:12.714Z,54.15
2017-01-26T03:44:13.346Z,54.17
2017-01-26T03:45:13.468Z,54.19
2017-01-26T03:46:13.228Z,54.22
2017-01-26T03:47:12.774Z,54.24
2017-01-26T03:48:13.449Z,54.25
2017-01-26T03:49:12.638Z,54.21
2017-01-26T03:50:12.610Z,54.25
2017-01-26T03:51:13.192Z,54.24
2017-01-26T03:52:12.133Z,54.25
2017-01-26T03:53:12.182Z,54.26
2017-01-26T03:54:12.416Z,54.28
2017-01-26T03:55:13.412Z,54.30
2017-01-26T03:56:13.949Z,54.31
2017-01-26T03:57:13.811Z,54.31
2017-01-26T03:58:14.329Z,54.31
2017-01-26T03:59:13.608Z,54.32
2017-01-26T04:00:13.482Z,54.33
2017-01-26T04:01:13.048Z,54.32
2017-01-26T04:02:13.702Z,54.37
2017-01-26T04:03:12.808Z,54.33
2017-01-26T04:04:13.537Z,54.34
2017-01-26T04:05:13.149Z,54.34
2017-01-26T04:06:12.215Z,54.34
2017-01-26T04:07:12.333Z,54.33
2017-01-26T04:08:14.227Z,54.34
2017-01-26T04:09:14.200Z,54.35
2017-01-26T04:10:13.857Z,54.36
2017-01-26T04:11:12.925Z,54.36
2017-01-26T04:12:11.756Z,54.36
2017-01-26T04:13:13.641Z,54.34
2017-01-26T04:14:12.719Z,54.35
2017-01-26T04:15:10.845Z,54.35
2017-01-26T04:16:11.609Z,53.49
2017-01-26T04:17:13.799Z,53.28
2017-01-26T04:18:13.405Z,53.18
2017-01-26T04:19:13.043Z,53.15
2017-01-26T04:20:12.646Z,53.93
2017-01-26T04:21:12.735Z,54.15
2017-01-26T04:22:12.805Z,54.23
2017-01-26T04:23:13.477Z,54.29
2017-01-26T04:24:13.567Z,54.29
2017-01-26T04:25:11.509Z,54.33
2017-01-26T04:26:12.449Z,54.33
2017-01-26T04:27:13.032Z,54.34
2017-01-26T04:28:12.284Z,54.33
2017-01-26T04:29:14.257Z,54.34
2017-01-26T04:30:13.170Z,54.39
2017-01-26T04:31:13.061Z,54.25
2017-01-26T04:32:14.616Z,53.51
2017-01-26T04:33:11.549Z,53.32
2017-01-26T04:34:11.934Z,53.22
2017-01-26T04:35:12.385Z,53.08
2017-01-26T04:36:12.452Z,53.14
2017-01-26T04:37:12.575Z,53.14
2017-01-26T04:38:12.571Z,53.13
2017-01-26T04:39:13.237Z,53.12
2017-01-26T04:40:12.877Z,53.11
2017-01-26T04:41:13.680Z,53.09
2017-01-26T04:42:13.356Z,53.08
2017-01-26T04:43:13.285Z,53.09
2017-01-26T04:44:13.005Z,53.09
2017-01-26T04:45:13.281Z,53.08
2017-01-26T04:46:14.122Z,53.11
2017-01-26T04:47:12.455Z,53.07
2017-01-26T04:48:12.457Z,53.13
2017-01-26T04:49:12.954Z,53.40
2017-01-26T04:50:12.076Z,53.97
2017-01-26T04:51:12.272Z,54.18
2017-01-26T04:52:12.336Z,54.23
2017-01-26T04:53:12.873Z,54.32
2017-01-26T04:54:13.466Z,54.36
2017-01-26T04:55:13.677Z,54.38
2017-01-26T04:56:13.387Z,54.41
2017-01-26T04:57:13.272Z,54.41
2017-01-26T04:58:11.295Z,54.45
2017-01-26T04:59:12.997Z,54.45
2017-01-26T05:00:13.768Z,54.46
2017-01-26T05:01:13.491Z,54.45
2017-01-26T05:02:13.203Z,54.47
2017-01-26T05:03:12.337Z,54.48
2017-01-26T05:04:12.896Z,54.48
2017-01-26T05:05:14.019Z,54.48
2017-01-26T05:06:12.330Z,54.51
2017-01-26T05:07:14.220Z,54.50
2017-01-26T05:08:12.754Z,54.53
2017-01-26T05:09:12.795Z,54.49
2017-01-26T05:10:12.718Z,54.52
2017-01-26T05:11:11.796Z,54.52
2017-01-26T05:12:13.405Z,54.53
2017-01-26T05:13:12.529Z,54.55
2017-01-26T05:14:12.862Z,54.52
2017-01-26T05:15:13.885Z,54.56
2017-01-26T05:16:15.678Z,54.55
2017-01-26T05:17:11.782Z,54.41
2017-01-26T05:18:10.000Z,54.54
2017-01-26T05:19:12.172Z,54.56
2017-01-26T05:20:12.211Z,54.58
2017-01-26T05:21:13.422Z,54.57
2017-01-26T05:22:14.027Z,54.57
2017-01-26T05:23:12.727Z,54.59
2017-01-26T05:24:13.380Z,54.57
2017-01-26T05:25:17.228Z,54.58
2017-01-26T05:26:16.661Z,54.49
2017-01-26T05:27:14.039Z,53.73
2017-01-26T05:28:13.124Z,53.53
2017-01-26T05:29:13.033Z,53.43
2017-01-26T05:30:12.644Z,53.50
2017-01-26T05:31:12.745Z,54.20
2017-01-26T05:32:13.309Z,54.36
2017-01-26T05:33:13.396Z,54.47
2017-01-26T05:34:12.957Z,54.42
2017-01-26T05:35:11.987Z,53.90
2017-01-26T05:36:12.246Z,54.39
2017-01-26T05:37:12.787Z,54.47
2017-01-26T05:38:14.889Z,54.53
2017-01-26T05:39:14.758Z,54.61
2017-01-26T05:40:13.239Z,54.47
2017-01-26T05:41:12.392Z,54.05
2017-01-26T05:42:13.087Z,54.46
2017-01-26T05:43:12.863Z,54.42
2017-01-26T05:44:12.993Z,53.93
2017-01-26T05:45:13.065Z,54.44
2017-01-26T05:46:12.109Z,54.52
2017-01-26T05:47:13.794Z,54.58
2017-01-26T05:48:12.903Z,54.62
2017-01-26T05:49:14.018Z,54.65
2017-01-26T05:50:12.753Z,54.66
2017-01-26T05:51:13.457Z,54.66
2017-01-26T05:52:13.098Z,54.67
2017-01-26T05:53:12.268Z,54.66
2017-01-26T05:54:13.137Z,54.69
2017-01-26T05:55:14.724Z,54.70
2017-01-26T05:56:11.098Z,54.71
2017-01-26T05:57:12.154Z,54.69
2017-01-26T05:58:12.294Z,54.69
2017-01-26T05:59:12.399Z,54.67
2017-01-26T06:00:11.437Z,54.70
2017-01-26T06:01:14.576Z,54.71
2017-01-26T06:02:09.931Z,54.70
2017-01-26T06:03:12.109Z,54.70
2017-01-26T06:04:13.740Z,54.71
2017-01-26T06:05:13.489Z,54.69
2017-01-26T06:06:11.530Z,54.71
2017-01-26T06:07:13.078Z,53.76
2017-01-26T06:08:12.069Z,53.62
2017-01-26T06:09:12.147Z,53.50
2017-01-26T06:10:13.026Z,53.49
2017-01-26T06:11:12.034Z,53.68
2017-01-26T06:12:12.612Z,54.31
2017-01-26T06:13:12.669Z,54.50
2017-01-26T06:14:12.802Z,54.56
2017-01-26T06:15:12.837Z,54.59
2017-01-26T06:16:12.977Z,54.63
2017-01-26T06:17:12.044Z,54.64
2017-01-26T06:18:11.291Z,54.70
2017-01-26T06:19:12.203Z,54.69
2017-01-26T06:20:12.975Z,54.68
2017-01-26T06:21:12.827Z,54.72
2017-01-26T06:22:13.511Z,54.68
2017-01-26T06:23:14.410Z,54.70
2017-01-26T06:24:11.475Z,54.70
2017-01-26T06:25:14.047Z,54.73
2017-01-26T06:26:12.898Z,54.58
2017-01-26T06:27:13.440Z,53.84
2017-01-26T06:28:13.331Z,53.62
2017-01-26T06:29:11.823Z,53.55
2017-01-26T06:30:12.586Z,53.59
2017-01-26T06:31:12.637Z,54.35
2017-01-26T06:32:13.345Z,54.55
2017-01-26T06:33:12.308Z,54.62
2017-01-26T06:34:13.004Z,54.50
2017-01-26T06:35:12.634Z,53.81
2017-01-26T06:36:11.584Z,53.73
2017-01-26T06:37:12.893Z,53.60
2017-01-26T06:38:13.826Z,53.51
2017-01-26T06:39:12.793Z,53.47
2017-01-26T06:40:14.764Z,54.38
2017-01-26T06:41:11.900Z,54.53
2017-01-26T06:42:13.059Z,53.78
2017-01-26T06:43:12.638Z,53.61
2017-01-26T06:44:13.427Z,53.65
2017-01-26T06:45:13.025Z,53.75
2017-01-26T06:46:12.751Z,54.38
2017-01-26T06:47:12.770Z,54.53
2017-01-26T06:48:13.635Z,54.61
2017-01-26T06:49:13.867Z,54.64
2017-01-26T06:50:13.530Z,54.74
2017-01-26T06:51:11.582Z,54.76
2017-01-26T06:52:12.737Z,54.75
2017-01-26T06:53:13.607Z,54.76
2017-01-26T06:54:13.233Z,54.77
2017-01-26T06:55:12.959Z,54.79
2017-01-26T06:56:12.598Z,54.77
2017-01-26T06:57:11.489Z,54.80
2017-01-26T06:58:12.703Z,54.78
2017-01-26T06:59:14.754Z,54.80
2017-01-26T07:00:10.081Z,54.79
2017-01-26T07:01:13.618Z,54.80
2017-01-26T07:02:12.791Z,54.82
2017-01-26T07:03:13.600Z,54.83
2017-01-26T07:04:12.747Z,54.83
2017-01-26T07:05:13.230Z,54.83
2017-01-26T07:06:12.877Z,54.84
2017-01-26T07:07:13.691Z,54.81
2017-01-26T07:08:10.949Z,54.84
2017-01-26T07:09:14.653Z,54.85
2017-01-26T07:10:14.347Z,54.86
2017-01-26T07:11:11.354Z,54.88
2017-01-26T07:12:12.381Z,54.86
2017-01-26T07:13:12.929Z,54.84
2017-01-26T07:14:10.159Z,54.86
2017-01-26T07:15:13.301Z,54.88
2017-01-26T07:16:12.241Z,54.87
2017-01-26T07:17:11.111Z,54.88
2017-01-26T07:18:12.336Z,54.87
2017-01-26T07:19:12.238Z,54.86
2017-01-26T07:20:11.642Z,54.90
2017-01-26T07:21:13.450Z,54.88
2017-01-26T07:22:13.251Z,54.86
2017-01-26T07:23:14.387Z,54.88
2017-01-26T07:24:13.239Z,54.88
2017-01-26T07:25:13.219Z,54.86
2017-01-26T07:26:13.050Z,54.89
2017-01-26T07:27:12.195Z,54.86
2017-01-26T07:28:12.992Z,54.88
2017-01-26T07:29:12.201Z,54.87
2017-01-26T07:30:09.900Z,54.90
2017-01-26T07:31:13.627Z,54.91
2017-01-26T07:32:14.437Z,54.90
2017-01-26T07:33:13.085Z,54.93
2017-01-26T07:34:15.099Z,54.93
2017-01-26T07:35:12.793Z,54.91
2017-01-26T07:36:13.459Z,54.92
2017-01-26T07:37:12.922Z,54.92
2017-01-26T07:38:12.945Z,54.92
2017-01-26T07:39:12.529Z,54.92
2017-01-26T07:40:12.978Z,54.92
2017-01-26T07:41:12.860Z,54.90
2017-01-26T07:42:13.647Z,54.91
2017-01-26T07:43:10.978Z,54.92
2017-01-26T07:44:12.806Z,54.91
2017-01-26T07:45:13.980Z,54.93
2017-01-26T07:46:11.998Z,54.94
2017-01-26T07:47:13.020Z,54.93
2017-01-26T07:48:12.069Z,54.95
2017-01-26T07:49:12.528Z,54.92
2017-01-26T07:50:13.015Z,54.92
2017-01-26T07:51:12.188Z,54.95
2017-01-26T07:52:12.776Z,54.96
2017-01-26T07:53:13.092Z,54.95
2017-01-26T07:54:12.052Z,54.97
2017-01-26T07:55:12.386Z,54.99
2017-01-26T07:56:12.430Z,54.95
2017-01-26T07:57:13.114Z,54.96
2017-01-26T07:58:13.108Z,54.93
2017-01-26T07:59:12.349Z,54.93
2017-01-26T08:00:12.336Z,54.94
2017-01-26T08:01:12.394Z,54.99
2017-01-26T08:02:13.038Z,54.96
2017-01-26T08:03:13.160Z,55.03
2017-01-26T08:04:12.986Z,54.97
2017-01-26T08:05:12.562Z,54.99
2017-01-26T08:06:13.158Z,54.95
2017-01-26T08:07:12.408Z,54.99
2017-01-26T08:08:14.124Z,54.96
2017-01-26T08:09:13.070Z,54.89
2017-01-26T08:10:13.669Z,54.14
2017-01-26T08:11:14.022Z,54.00
2017-01-26T08:12:10.678Z,53.85
2017-01-26T08:13:14.639Z,53.77
2017-01-26T08:14:11.758Z,53.78
2017-01-26T08:15:12.820Z,53.73
2017-01-26T08:16:13.625Z,53.68
2017-01-26T08:17:12.920Z,53.66
2017-01-26T08:18:12.916Z,53.69
2017-01-26T08:19:12.101Z,53.64
2017-01-26T08:20:13.722Z,53.68
2017-01-26T08:21:13.274Z,53.68
2017-01-26T08:22:12.183Z,53.70
2017-01-26T08:23:12.620Z,53.71
2017-01-26T08:24:13.095Z,53.69
2017-01-26T08:25:12.861Z,53.71
2017-01-26T08:26:13.461Z,53.82
2017-01-26T08:27:13.273Z,54.53
2017-01-26T08:28:13.803Z,54.73
2017-01-26T08:29:13.015Z,54.82
2017-01-26T08:30:13.089Z,54.91
2017-01-26T08:31:12.565Z,54.90
2017-01-26T08:32:14.339Z,54.94
2017-01-26T08:33:12.271Z,54.94
2017-01-26T08:34:12.322Z,54.99
2017-01-26T08:35:12.902Z,55.00
2017-01-26T08:36:13.160Z,55.00
2017-01-26T08:37:12.848Z,55.03
2017-01-26T08:38:14.472Z,55.04
2017-01-26T08:39:13.355Z,55.09
2017-01-26T08:40:12.566Z,55.05
2017-01-26T08:41:13.356Z,55.04
2017-01-26T08:42:13.010Z,55.07
2017-01-26T08:43:12.055Z,55.07
2017-01-26T08:44:11.968Z,55.08
2017-01-26T08:45:13.588Z,55.12
2017-01-26T08:46:12.644Z,55.13
2017-01-26T08:47:12.761Z,55.13
2017-01-26T08:48:12.859Z,55.16
2017-01-26T08:49:12.195Z,54.96
2017-01-26T08:50:12.776Z,54.24
2017-01-26T08:51:13.538Z,54.23
2017-01-26T08:52:12.693Z,55.24
2017-01-26T08:53:12.833Z,55.32
2017-01-26T08:54:13.561Z,55.28
2017-01-26T08:55:13.213Z,55.27
2017-01-26T08:56:12.279Z,55.22
2017-01-26T08:57:12.361Z,55.21
2017-01-26T08:58:12.488Z,55.21
2017-01-26T08:59:13.990Z,55.23
2017-01-26T09:00:12.042Z,55.20
2017-01-26T09:01:11.366Z,55.01
2017-01-26T09:02:13.310Z,54.29
2017-01-26T09:03:14.245Z,54.09
2017-01-26T09:04:11.163Z,53.99
2017-01-26T09:05:13.808Z,53.90
2017-01-26T09:06:13.444Z,53.83
2017-01-26T09:07:12.741Z,53.79
2017-01-26T09:08:11.299Z,53.78
2017-01-26T09:09:12.863Z,53.74
2017-01-26T09:10:12.947Z,53.72
2017-01-26T09:11:12.938Z,54.05
2017-01-26T09:12:13.603Z,54.90
2017-01-26T09:13:13.750Z,55.01
2017-01-26T09:14:10.102Z,53.17
2017-01-26T09:15:12.212Z,37.84
2017-01-26T09:16:16.058Z,44.69
2017-01-26T09:17:12.088Z,41.37
2017-01-26T09:18:09.349Z,39.70
2017-01-26T09:19:13.358Z,37.29
2017-01-26T09:20:13.198Z,37.93
2017-01-26T09:21:12.228Z,37.27
2017-01-26T09:22:12.867Z,36.35
2017-01-26T09:23:13.036Z,38.81
2017-01-26T09:24:13.813Z,37.51
2017-01-26T09:25:12.979Z,39.39
2017-01-26T09:26:13.294Z,40.05
2017-01-26T09:27:11.288Z,39.74
2017-01-26T09:28:12.834Z,39.16
2017-01-26T09:29:13.112Z,38.70
2017-01-26T09:30:12.830Z,38.24
2017-01-26T09:31:11.902Z,38.62
2017-01-26T09:32:13.561Z,38.54
2017-01-26T09:33:13.324Z,38.38
2017-01-26T09:34:13.012Z,39.04
2017-01-26T09:35:14.078Z,39.30
2017-01-26T09:36:12.796Z,40.09
2017-01-26T09:37:13.578Z,40.05
2017-01-26T09:38:13.062Z,40.47
2017-01-26T09:39:13.738Z,40.52
2017-01-26T09:40:12.846Z,40.88
2017-01-26T09:41:13.431Z,41.39
2017-01-26T09:42:13.480Z,41.67
2017-01-26T09:43:13.021Z,41.99
2017-01-26T09:44:11.526Z,42.18
2017-01-26T09:45:13.094Z,42.30
2017-01-26T09:46:13.756Z,42.13
2017-01-26T09:47:13.477Z,42.41
2017-01-26T09:48:12.639Z,42.71
2017-01-26T09:49:12.685Z,43.04
2017-01-26T09:50:15.428Z,43.36
2017-01-26T09:51:13.126Z,43.46
2017-01-26T09:52:12.919Z,43.79
2017-01-26T09:53:13.469Z,43.97
2017-01-26T09:54:13.206Z,44.12
2017-01-26T09:55:13.738Z,44.49
2017-01-26T09:56:11.882Z,44.56
2017-01-26T09:57:13.683Z,44.81
2017-01-26T09:58:12.802Z,45.03
2017-01-26T09:59:12.818Z,45.10
2017-01-26T10:00:13.575Z,45.10
2017-01-26T10:01:13.113Z,45.17
2017-01-26T10:02:12.210Z,44.72
2017-01-26T10:03:12.417Z,44.69
2017-01-26T10:04:13.162Z,44.66
2017-01-26T10:05:12.086Z,44.79
2017-01-26T10:06:12.651Z,44.92
2017-01-26T10:07:14.364Z,45.01
2017-01-26T10:08:13.120Z,45.20
2017-01-26T10:09:12.855Z,45.54
2017-01-26T10:10:12.240Z,46.19
2017-01-26T10:11:14.920Z,46.42
2017-01-26T10:12:14.920Z,46.62
2017-01-26T10:13:13.109Z,46.79
2017-01-26T10:14:12.830Z,46.91
2017-01-26T10:15:12.935Z,46.93
2017-01-26T10:16:12.083Z,47.28
2017-01-26T10:17:12.440Z,47.31
2017-01-26T10:18:13.061Z,47.32
2017-01-26T10:19:13.753Z,47.36
2017-01-26T10:20:15.653Z,47.49
2017-01-26T10:21:13.645Z,47.53
2017-01-26T10:22:13.186Z,47.60
2017-01-26T10:23:13.993Z,47.57
2017-01-26T10:24:12.179Z,47.86
2017-01-26T10:25:14.301Z,47.98
2017-01-26T10:26:12.974Z,47.98
2017-01-26T10:27:16.338Z,47.93
2017-01-26T10:28:12.583Z,48.15
2017-01-26T10:29:14.282Z,48.06
2017-01-26T10:30:12.317Z,48.21
2017-01-26T10:31:13.034Z,48.54
2017-01-26T10:32:13.804Z,48.42
2017-01-26T10:33:13.396Z,48.41
2017-01-26T10:34:12.514Z,48.44
2017-01-26T10:35:12.678Z,48.63
2017-01-26T10:36:14.637Z,48.60
2017-01-26T10:37:13.591Z,48.61
2017-01-26T10:38:13.241Z,48.74
2017-01-26T10:39:15.103Z,48.76
2017-01-26T10:40:12.186Z,48.82
2017-01-26T10:41:12.320Z,48.85
2017-01-26T10:42:12.898Z,48.87
2017-01-26T10:43:13.043Z,48.87
2017-01-26T10:44:14.929Z,48.98
2017-01-26T10:45:12.593Z,48.94
2017-01-26T10:46:13.387Z,48.97
2017-01-26T10:47:13.436Z,49.00
2017-01-26T10:48:12.499Z,49.03
2017-01-26T10:49:13.270Z,49.10
2017-01-26T10:50:13.852Z,49.05
2017-01-26T10:51:13.808Z,49.11
2017-01-26T10:52:12.713Z,49.20
2017-01-26T10:53:13.383Z,49.23
2017-01-26T10:54:12.401Z,49.29
2017-01-26T10:55:15.108Z,49.39
2017-01-26T10:56:12.958Z,49.37
2017-01-26T10:57:12.152Z,49.67
2017-01-26T10:58:12.959Z,49.76
2017-01-26T10:59:12.242Z,50.06
2017-01-26T11:00:11.416Z,49.96
2017-01-26T11:01:14.957Z,49.07
2017-01-26T11:02:12.696Z,49.73
2017-01-26T11:03:14.747Z,49.82
2017-01-26T11:04:13.351Z,49.90
2017-01-26T11:05:12.937Z,50.02
2017-01-26T11:06:12.083Z,50.26
2017-01-26T11:07:12.920Z,50.17
2017-01-26T11:08:13.688Z,50.42
2017-01-26T11:09:12.936Z,50.32
2017-01-26T11:10:13.346Z,50.96
2017-01-26T11:11:13.744Z,50.57
2017-01-26T11:12:13.858Z,50.92
2017-01-26T11:13:14.651Z,50.58
2017-01-26T11:14:14.076Z,50.54
2017-01-26T11:15:12.845Z,50.62
2017-01-26T11:16:14.685Z,50.79
2017-01-26T11:17:14.575Z,50.90
2017-01-26T11:18:14.221Z,52.12
2017-01-26T11:19:13.486Z,51.61
2017-01-26T11:20:14.171Z,51.67
2017-01-26T11:21:12.703Z,51.58
2017-01-26T11:22:13.046Z,50.91
2017-01-26T11:23:12.723Z,52.06
2017-01-26T11:24:15.861Z,52.41
2017-01-26T11:25:12.977Z,51.78
2017-01-26T11:26:12.217Z,52.23
2017-01-26T11:27:12.757Z,53.74
2017-01-26T11:28:13.675Z,53.60
2017-01-26T11:29:12.918Z,53.03
2017-01-26T11:30:13.232Z,52.49
2017-01-26T11:31:13.964Z,53.08
2017-01-26T11:32:11.284Z,52.83
2017-01-26T11:33:12.768Z,52.90
2017-01-26T11:34:11.806Z,53.64
2017-01-26T11:35:13.739Z,52.76
2017-01-26T11:36:13.143Z,53.17
2017-01-26T11:37:12.290Z,53.35
2017-01-26T11:38:47.117Z,54.13
2017-01-26T11:39:24.380Z,53.88
2017-01-26T11:40:13.649Z,54.31
2017-01-26T11:41:12.907Z,54.82
2017-01-26T11:42:13.132Z,54.78
2017-01-26T11:43:12.250Z,55.09
2017-01-26T11:44:12.504Z,55.30
2017-01-26T11:45:14.022Z,55.22
2017-01-26T11:46:12.731Z,55.33
2017-01-26T11:47:11.713Z,55.56
2017-01-26T11:48:12.898Z,54.58
2017-01-26T11:49:12.875Z,54.47
2017-01-26T11:50:13.013Z,54.55
2017-01-26T11:51:12.065Z,54.80
2017-01-26T11:52:12.208Z,55.42
2017-01-26T11:53:12.229Z,55.67
2017-01-26T11:54:11.439Z,55.69
2017-01-26T11:55:13.849Z,54.87
2017-01-26T11:56:13.710Z,54.80
2017-01-26T11:57:13.438Z,55.05
2017-01-26T11:58:13.156Z,55.65
2017-01-26T11:59:12.152Z,55.86
2017-01-26T12:00:15.113Z,56.07
2017-01-26T12:01:12.501Z,56.04
2017-01-26T12:02:13.357Z,55.36
2017-01-26T12:03:12.339Z,55.32
2017-01-26T12:04:11.033Z,55.34
2017-01-26T12:05:13.801Z,56.15
2017-01-26T12:06:14.536Z,56.45
2017-01-26T12:07:13.411Z,56.49
2017-01-26T12:08:12.666Z,56.54
2017-01-26T12:09:14.505Z,56.58
2017-01-26T12:10:14.225Z,56.65
2017-01-26T12:11:11.675Z,56.85
2017-01-26T12:12:14.940Z,56.93
2017-01-26T12:13:13.095Z,56.90
2017-01-26T12:14:12.801Z,57.05
2017-01-26T12:15:11.269Z,57.06
2017-01-26T12:16:12.316Z,57.16
2017-01-26T12:17:13.152Z,57.42
2017-01-26T12:18:12.351Z,56.25
2017-01-26T12:19:13.053Z,55.89
2017-01-26T12:20:12.442Z,55.81
2017-01-26T12:21:13.123Z,55.96
2017-01-26T12:22:12.124Z,56.66
2017-01-26T12:23:12.354Z,56.88
2017-01-26T12:24:12.410Z,56.91
2017-01-26T12:25:12.453Z,56.86
2017-01-26T12:26:12.508Z,56.81
2017-01-26T12:27:13.165Z,56.95
2017-01-26T12:28:13.273Z,57.13
2017-01-26T12:29:13.546Z,57.18
2017-01-26T12:30:13.260Z,57.31
2017-01-26T12:31:12.317Z,57.29
2017-01-26T12:32:12.239Z,57.33
2017-01-26T12:33:14.770Z,57.25
2017-01-26T12:34:12.877Z,57.42
2017-01-26T12:35:12.986Z,57.39
2017-01-26T12:36:10.943Z,57.56
2017-01-26T12:37:12.684Z,57.54
2017-01-26T12:38:12.838Z,57.45
2017-01-26T12:39:13.076Z,57.73
2017-01-26T12:40:12.758Z,57.48
2017-01-26T12:41:13.757Z,57.64
2017-01-26T12:42:13.255Z,57.54
2017-01-26T12:43:11.416Z,56.89
2017-01-26T12:44:12.451Z,57.50
2017-01-26T12:45:12.772Z,57.48
2017-01-26T12:46:11.962Z,57.56
2017-01-26T12:47:13.569Z,56.67
2017-01-26T12:48:12.584Z,56.63
2017-01-26T12:49:12.655Z,56.97
2017-01-26T12:50:13.344Z,57.62
2017-01-26T12:51:13.549Z,57.86
2017-01-26T12:52:11.327Z,58.02